sensor_id;sensor_type;location;lat;lon;timestamp;P1;durP1;ratioP1;P2;durP2;ratioP2
4377;SDS011;2203;53.686;9.994;2023-02-12T00:01:17;14.40;;;6.60;;
4377;SDS011;2203;53.686;9.994;2023-02-12T00:03:43;11.30;;;6.87;;
4377;SDS011;2203;53.686;9.994;2023-02-12T00:06:09;15.13;;;6.87;;
4377;SDS011;2203;53.686;9.994;2023-02-12T00:08:35;13.97;;;6.90;;
4377;SDS011;2203;53.686;9.994;2023-02-12T00:11:08;13.37;;;7.43;;
4377;SDS011;2203;53.686;9.994;2023-02-12T00:13:38;14.90;;;7.80;;
4377;SDS011;2203;53.686;9.994;2023-02-12T00:16:08;21.10;;;8.50;;
4377;SDS011;2203;53.686;9.994;2023-02-12T00:18:35;15.33;;;8.53;;
4377;SDS011;2203;53.686;9.994;2023-02-12T00:21:01;20.40;;;9.70;;
4377;SDS011;2203;53.686;9.994;2023-02-12T00:23:27;19.67;;;9.70;;
4377;SDS011;2203;53.686;9.994;2023-02-12T00:25:53;21.23;;;9.33;;
4377;SDS011;2203;53.686;9.994;2023-02-12T00:28:18;19.17;;;8.93;;
4377;SDS011;2203;53.686;9.994;2023-02-12T00:30:44;22.30;;;10.33;;
4377;SDS011;2203;53.686;9.994;2023-02-12T00:33:09;21.13;;;9.80;;
4377;SDS011;2203;53.686;9.994;2023-02-12T00:35:34;23.63;;;9.63;;
4377;SDS011;2203;53.686;9.994;2023-02-12T00:38:00;17.63;;;9.00;;
4377;SDS011;2203;53.686;9.994;2023-02-12T00:40:25;18.47;;;8.60;;
4377;SDS011;2203;53.686;9.994;2023-02-12T00:42:51;18.37;;;8.37;;
4377;SDS011;2203;53.686;9.994;2023-02-12T00:45:16;21.13;;;8.17;;
4377;SDS011;2203;53.686;9.994;2023-02-12T00:47:42;13.53;;;6.37;;
4377;SDS011;2203;53.686;9.994;2023-02-12T00:50:07;11.77;;;5.77;;
4377;SDS011;2203;53.686;9.994;2023-02-12T00:52:33;11.27;;;5.53;;
4377;SDS011;2203;53.686;9.994;2023-02-12T00:54:58;13.43;;;5.13;;
4377;SDS011;2203;53.686;9.994;2023-02-12T00:57:24;9.70;;;4.80;;
4377;SDS011;2203;53.686;9.994;2023-02-12T00:59:49;8.40;;;4.10;;
4377;SDS011;2203;53.686;9.994;2023-02-12T01:02:14;9.60;;;4.47;;
4377;SDS011;2203;53.686;9.994;2023-02-12T01:04:40;10.53;;;4.70;;
4377;SDS011;2203;53.686;9.994;2023-02-12T01:07:05;9.10;;;5.10;;
4377;SDS011;2203;53.686;9.994;2023-02-12T01:09:31;7.07;;;4.60;;
4377;SDS011;2203;53.686;9.994;2023-02-12T01:11:56;12.43;;;4.63;;
4377;SDS011;2203;53.686;9.994;2023-02-12T01:14:22;11.57;;;4.60;;
4377;SDS011;2203;53.686;9.994;2023-02-12T01:16:47;11.33;;;4.67;;
4377;SDS011;2203;53.686;9.994;2023-02-12T01:19:13;12.63;;;4.70;;
4377;SDS011;2203;53.686;9.994;2023-02-12T01:21:38;9.33;;;5.10;;
4377;SDS011;2203;53.686;9.994;2023-02-12T01:24:03;7.57;;;5.17;;
4377;SDS011;2203;53.686;9.994;2023-02-12T01:26:29;6.73;;;3.97;;
4377;SDS011;2203;53.686;9.994;2023-02-12T01:28:56;7.40;;;4.50;;
4377;SDS011;2203;53.686;9.994;2023-02-12T01:31:24;6.73;;;3.70;;
4377;SDS011;2203;53.686;9.994;2023-02-12T01:33:52;6.13;;;3.83;;
4377;SDS011;2203;53.686;9.994;2023-02-12T01:36:19;8.13;;;3.80;;
4377;SDS011;2203;53.686;9.994;2023-02-12T01:38:45;8.73;;;3.93;;
4377;SDS011;2203;53.686;9.994;2023-02-12T01:41:17;14.03;;;6.00;;
4377;SDS011;2203;53.686;9.994;2023-02-12T01:43:45;18.93;;;6.70;;
4377;SDS011;2203;53.686;9.994;2023-02-12T01:46:11;13.00;;;6.27;;
4377;SDS011;2203;53.686;9.994;2023-02-12T01:48:39;16.40;;;6.10;;
4377;SDS011;2203;53.686;9.994;2023-02-12T01:51:10;14.53;;;6.60;;
4377;SDS011;2203;53.686;9.994;2023-02-12T01:53:40;16.83;;;7.00;;
4377;SDS011;2203;53.686;9.994;2023-02-12T01:56:08;14.83;;;6.50;;
4377;SDS011;2203;53.686;9.994;2023-02-12T01:58:35;16.20;;;6.67;;
4377;SDS011;2203;53.686;9.994;2023-02-12T02:01:03;18.40;;;7.50;;
4377;SDS011;2203;53.686;9.994;2023-02-12T02:03:31;22.90;;;9.83;;
4377;SDS011;2203;53.686;9.994;2023-02-12T02:05:59;20.13;;;8.50;;
4377;SDS011;2203;53.686;9.994;2023-02-12T02:08:26;21.53;;;8.83;;
4377;SDS011;2203;53.686;9.994;2023-02-12T02:10:52;21.80;;;9.17;;
4377;SDS011;2203;53.686;9.994;2023-02-12T02:13:18;18.00;;;9.10;;
4377;SDS011;2203;53.686;9.994;2023-02-12T02:16:05;25.50;;;10.60;;
4377;SDS011;2203;53.686;9.994;2023-02-12T02:18:58;21.20;;;9.40;;
4377;SDS011;2203;53.686;9.994;2023-02-12T02:38:18;19.77;;;9.13;;
4377;SDS011;2203;53.686;9.994;2023-02-12T02:41:04;21.47;;;7.90;;
4377;SDS011;2203;53.686;9.994;2023-02-12T02:43:43;15.70;;;8.43;;
4377;SDS011;2203;53.686;9.994;2023-02-12T02:49:04;14.10;;;7.27;;
4377;SDS011;2203;53.686;9.994;2023-02-12T02:51:42;15.20;;;7.50;;
4377;SDS011;2203;53.686;9.994;2023-02-12T02:57:07;12.13;;;6.47;;
4377;SDS011;2203;53.686;9.994;2023-02-12T02:59:41;14.50;;;7.10;;
4377;SDS011;2203;53.686;9.994;2023-02-12T03:04:47;13.90;;;6.07;;
4377;SDS011;2203;53.686;9.994;2023-02-12T03:07:19;14.67;;;6.30;;
4377;SDS011;2203;53.686;9.994;2023-02-12T03:09:49;18.50;;;7.27;;
4377;SDS011;2203;53.686;9.994;2023-02-12T03:15:18;17.40;;;7.17;;
4377;SDS011;2203;53.686;9.994;2023-02-12T03:17:45;12.00;;;6.53;;
4377;SDS011;2203;53.686;9.994;2023-02-12T03:20:17;16.37;;;6.60;;
4377;SDS011;2203;53.686;9.994;2023-02-12T03:23:07;14.23;;;6.00;;
4377;SDS011;2203;53.686;9.994;2023-02-12T03:25:37;13.50;;;5.83;;
4377;SDS011;2203;53.686;9.994;2023-02-12T03:28:09;8.67;;;4.90;;
4377;SDS011;2203;53.686;9.994;2023-02-12T03:30:41;8.00;;;4.07;;
4377;SDS011;2203;53.686;9.994;2023-02-12T03:33:21;15.93;;;4.73;;
4377;SDS011;2203;53.686;9.994;2023-02-12T03:35:58;8.53;;;4.00;;
4377;SDS011;2203;53.686;9.994;2023-02-12T03:41:30;7.63;;;3.37;;
4377;SDS011;2203;53.686;9.994;2023-02-12T03:44:04;13.50;;;4.10;;
4377;SDS011;2203;53.686;9.994;2023-02-12T03:49:06;9.43;;;4.10;;
4377;SDS011;2203;53.686;9.994;2023-02-12T03:51:41;12.03;;;4.00;;
4377;SDS011;2203;53.686;9.994;2023-02-12T03:54:08;7.53;;;4.53;;
4377;SDS011;2203;53.686;9.994;2023-02-12T03:56:36;11.77;;;4.70;;
4377;SDS011;2203;53.686;9.994;2023-02-12T03:59:05;10.03;;;4.53;;
4377;SDS011;2203;53.686;9.994;2023-02-12T04:01:31;23.30;;;5.00;;
4377;SDS011;2203;53.686;9.994;2023-02-12T04:03:57;24.43;;;6.00;;
4377;SDS011;2203;53.686;9.994;2023-02-12T04:06:24;22.73;;;6.50;;
4377;SDS011;2203;53.686;9.994;2023-02-12T04:08:52;15.00;;;6.47;;
4377;SDS011;2203;53.686;9.994;2023-02-12T04:16:48;17.07;;;7.10;;
4377;SDS011;2203;53.686;9.994;2023-02-12T04:19:19;18.20;;;6.87;;
4377;SDS011;2203;53.686;9.994;2023-02-12T04:22:13;17.10;;;6.53;;
4377;SDS011;2203;53.686;9.994;2023-02-12T04:24:48;17.70;;;7.03;;
4377;SDS011;2203;53.686;9.994;2023-02-12T04:27:21;22.47;;;8.40;;
4377;SDS011;2203;53.686;9.994;2023-02-12T04:29:54;18.13;;;7.47;;
4377;SDS011;2203;53.686;9.994;2023-02-12T04:35:31;39.07;;;7.00;;
4377;SDS011;2203;53.686;9.994;2023-02-12T04:40:30;26.23;;;7.80;;
4377;SDS011;2203;53.686;9.994;2023-02-12T04:42:55;30.93;;;7.83;;
4377;SDS011;2203;53.686;9.994;2023-02-12T04:45:31;33.83;;;9.57;;
4377;SDS011;2203;53.686;9.994;2023-02-12T04:47:58;32.40;;;8.97;;
4377;SDS011;2203;53.686;9.994;2023-02-12T04:50:24;26.60;;;10.13;;
4377;SDS011;2203;53.686;9.994;2023-02-12T04:52:49;25.40;;;9.27;;
4377;SDS011;2203;53.686;9.994;2023-02-12T04:55:15;24.00;;;9.00;;
4377;SDS011;2203;53.686;9.994;2023-02-12T04:57:40;29.30;;;9.47;;
4377;SDS011;2203;53.686;9.994;2023-02-12T05:00:07;36.50;;;10.00;;
4377;SDS011;2203;53.686;9.994;2023-02-12T05:02:35;23.13;;;8.13;;
4377;SDS011;2203;53.686;9.994;2023-02-12T05:05:00;20.40;;;8.73;;
4377;SDS011;2203;53.686;9.994;2023-02-12T05:07:26;18.10;;;8.20;;
4377;SDS011;2203;53.686;9.994;2023-02-12T05:09:51;18.50;;;8.10;;
4377;SDS011;2203;53.686;9.994;2023-02-12T05:12:17;40.47;;;7.27;;
4377;SDS011;2203;53.686;9.994;2023-02-12T05:14:42;27.33;;;7.90;;
4377;SDS011;2203;53.686;9.994;2023-02-12T05:17:08;36.50;;;8.13;;
4377;SDS011;2203;53.686;9.994;2023-02-12T05:19:33;35.90;;;7.90;;
4377;SDS011;2203;53.686;9.994;2023-02-12T05:21:59;52.80;;;8.10;;
4377;SDS011;2203;53.686;9.994;2023-02-12T05:24:24;16.37;;;7.50;;
4377;SDS011;2203;53.686;9.994;2023-02-12T05:26:50;18.73;;;7.70;;
4377;SDS011;2203;53.686;9.994;2023-02-12T05:29:15;59.17;;;8.77;;
4377;SDS011;2203;53.686;9.994;2023-02-12T05:31:41;20.63;;;8.23;;
4377;SDS011;2203;53.686;9.994;2023-02-12T05:34:07;29.27;;;8.80;;
4377;SDS011;2203;53.686;9.994;2023-02-12T05:36:34;21.87;;;8.47;;
4377;SDS011;2203;53.686;9.994;2023-02-12T05:38:59;26.87;;;9.17;;
4377;SDS011;2203;53.686;9.994;2023-02-12T05:41:25;23.00;;;7.40;;
4377;SDS011;2203;53.686;9.994;2023-02-12T05:43:51;23.57;;;8.53;;
4377;SDS011;2203;53.686;9.994;2023-02-12T05:46:17;25.53;;;8.53;;
4377;SDS011;2203;53.686;9.994;2023-02-12T05:48:43;32.13;;;9.03;;
4377;SDS011;2203;53.686;9.994;2023-02-12T05:51:10;28.40;;;8.27;;
4377;SDS011;2203;53.686;9.994;2023-02-12T05:53:37;23.77;;;9.43;;
4377;SDS011;2203;53.686;9.994;2023-02-12T05:58:37;39.33;;;10.10;;
4377;SDS011;2203;53.686;9.994;2023-02-12T06:01:02;26.70;;;8.20;;
4377;SDS011;2203;53.686;9.994;2023-02-12T06:03:32;23.87;;;10.10;;
4377;SDS011;2203;53.686;9.994;2023-02-12T06:05:58;23.13;;;8.97;;
4377;SDS011;2203;53.686;9.994;2023-02-12T06:08:23;29.57;;;10.20;;
4377;SDS011;2203;53.686;9.994;2023-02-12T06:10:49;32.87;;;10.40;;
4377;SDS011;2203;53.686;9.994;2023-02-12T06:13:14;28.17;;;11.03;;
4377;SDS011;2203;53.686;9.994;2023-02-12T06:15:39;27.67;;;10.50;;
4377;SDS011;2203;53.686;9.994;2023-02-12T06:18:05;26.80;;;10.23;;
4377;SDS011;2203;53.686;9.994;2023-02-12T06:20:30;42.50;;;12.30;;
4377;SDS011;2203;53.686;9.994;2023-02-12T06:22:55;30.33;;;11.83;;
4377;SDS011;2203;53.686;9.994;2023-02-12T06:25:21;30.33;;;11.37;;
4377;SDS011;2203;53.686;9.994;2023-02-12T06:27:46;35.97;;;12.13;;
4377;SDS011;2203;53.686;9.994;2023-02-12T06:30:12;36.93;;;12.70;;
4377;SDS011;2203;53.686;9.994;2023-02-12T06:32:38;35.20;;;12.60;;
4377;SDS011;2203;53.686;9.994;2023-02-12T06:35:03;30.53;;;12.77;;
4377;SDS011;2203;53.686;9.994;2023-02-12T06:37:29;46.30;;;13.40;;
4377;SDS011;2203;53.686;9.994;2023-02-12T06:39:54;32.33;;;13.47;;
4377;SDS011;2203;53.686;9.994;2023-02-12T06:42:20;35.13;;;13.83;;
4377;SDS011;2203;53.686;9.994;2023-02-12T06:44:45;31.73;;;13.70;;
4377;SDS011;2203;53.686;9.994;2023-02-12T06:47:11;35.20;;;14.37;;
4377;SDS011;2203;53.686;9.994;2023-02-12T06:49:37;35.80;;;13.60;;
4377;SDS011;2203;53.686;9.994;2023-02-12T06:52:03;35.97;;;13.67;;
4377;SDS011;2203;53.686;9.994;2023-02-12T06:54:28;36.70;;;14.50;;
4377;SDS011;2203;53.686;9.994;2023-02-12T06:56:53;55.13;;;14.40;;
4377;SDS011;2203;53.686;9.994;2023-02-12T06:59:19;68.43;;;14.57;;
4377;SDS011;2203;53.686;9.994;2023-02-12T07:01:45;43.30;;;16.30;;
4377;SDS011;2203;53.686;9.994;2023-02-12T07:04:10;37.50;;;14.60;;
4377;SDS011;2203;53.686;9.994;2023-02-12T07:06:36;38.37;;;14.73;;
4377;SDS011;2203;53.686;9.994;2023-02-12T07:09:02;48.30;;;15.60;;
4377;SDS011;2203;53.686;9.994;2023-02-12T07:11:29;46.07;;;16.57;;
4377;SDS011;2203;53.686;9.994;2023-02-12T07:13:56;40.53;;;15.60;;
4377;SDS011;2203;53.686;9.994;2023-02-12T07:16:22;57.43;;;16.83;;
4377;SDS011;2203;53.686;9.994;2023-02-12T07:18:47;53.20;;;15.63;;
4377;SDS011;2203;53.686;9.994;2023-02-12T07:21:13;58.27;;;16.40;;
4377;SDS011;2203;53.686;9.994;2023-02-12T07:23:40;43.03;;;16.53;;
4377;SDS011;2203;53.686;9.994;2023-02-12T07:26:07;53.53;;;18.40;;
4377;SDS011;2203;53.686;9.994;2023-02-12T07:28:34;60.30;;;16.03;;
4377;SDS011;2203;53.686;9.994;2023-02-12T07:31:10;75.90;;;15.73;;
4377;SDS011;2203;53.686;9.994;2023-02-12T07:33:39;46.40;;;16.50;;
4377;SDS011;2203;53.686;9.994;2023-02-12T07:36:07;78.40;;;18.43;;
4377;SDS011;2203;53.686;9.994;2023-02-12T07:38:34;50.57;;;16.57;;
4377;SDS011;2203;53.686;9.994;2023-02-12T07:43:32;42.53;;;14.90;;
4377;SDS011;2203;53.686;9.994;2023-02-12T07:46:04;72.17;;;15.40;;
4377;SDS011;2203;53.686;9.994;2023-02-12T07:48:33;45.57;;;17.60;;
4377;SDS011;2203;53.686;9.994;2023-02-12T07:51:03;45.27;;;15.93;;
4377;SDS011;2203;53.686;9.994;2023-02-12T07:53:29;44.83;;;15.67;;
4377;SDS011;2203;53.686;9.994;2023-02-12T07:55:55;46.23;;;15.83;;
4377;SDS011;2203;53.686;9.994;2023-02-12T07:58:38;40.53;;;16.80;;
4377;SDS011;2203;53.686;9.994;2023-02-12T08:01:11;50.73;;;17.07;;
4377;SDS011;2203;53.686;9.994;2023-02-12T08:03:39;42.53;;;16.73;;
4377;SDS011;2203;53.686;9.994;2023-02-12T08:06:24;56.97;;;17.60;;
4377;SDS011;2203;53.686;9.994;2023-02-12T08:08:51;46.67;;;17.20;;
4377;SDS011;2203;53.686;9.994;2023-02-12T08:11:20;51.00;;;17.83;;
4377;SDS011;2203;53.686;9.994;2023-02-12T08:13:46;53.87;;;18.77;;
4377;SDS011;2203;53.686;9.994;2023-02-12T08:16:13;72.83;;;19.57;;
4377;SDS011;2203;53.686;9.994;2023-02-12T08:18:40;46.93;;;18.47;;
4377;SDS011;2203;53.686;9.994;2023-02-12T08:21:06;63.33;;;19.30;;
4377;SDS011;2203;53.686;9.994;2023-02-12T08:23:33;54.43;;;18.37;;
4377;SDS011;2203;53.686;9.994;2023-02-12T08:26:16;65.40;;;17.40;;
4377;SDS011;2203;53.686;9.994;2023-02-12T08:28:42;50.73;;;18.10;;
4377;SDS011;2203;53.686;9.994;2023-02-12T08:31:13;49.67;;;17.50;;
4377;SDS011;2203;53.686;9.994;2023-02-12T08:33:40;59.57;;;17.70;;
4377;SDS011;2203;53.686;9.994;2023-02-12T08:36:10;43.13;;;15.90;;
4377;SDS011;2203;53.686;9.994;2023-02-12T08:38:37;41.53;;;16.47;;
4377;SDS011;2203;53.686;9.994;2023-02-12T08:41:08;40.87;;;17.40;;
4377;SDS011;2203;53.686;9.994;2023-02-12T08:43:35;48.03;;;17.00;;
4377;SDS011;2203;53.686;9.994;2023-02-12T08:46:08;46.83;;;17.67;;
4377;SDS011;2203;53.686;9.994;2023-02-12T08:48:35;42.00;;;16.30;;
4377;SDS011;2203;53.686;9.994;2023-02-12T08:51:08;43.97;;;16.63;;
4377;SDS011;2203;53.686;9.994;2023-02-12T08:53:34;44.33;;;18.10;;
4377;SDS011;2203;53.686;9.994;2023-02-12T08:56:00;46.33;;;16.57;;
4377;SDS011;2203;53.686;9.994;2023-02-12T08:58:26;39.33;;;15.30;;
4377;SDS011;2203;53.686;9.994;2023-02-12T09:00:51;44.00;;;14.87;;
4377;SDS011;2203;53.686;9.994;2023-02-12T09:03:17;40.33;;;16.30;;
4377;SDS011;2203;53.686;9.994;2023-02-12T09:05:42;48.40;;;17.30;;
4377;SDS011;2203;53.686;9.994;2023-02-12T09:08:08;47.83;;;16.23;;
4377;SDS011;2203;53.686;9.994;2023-02-12T09:10:37;35.43;;;14.50;;
4377;SDS011;2203;53.686;9.994;2023-02-12T09:13:03;51.33;;;16.03;;
4377;SDS011;2203;53.686;9.994;2023-02-12T09:15:30;45.87;;;15.90;;
4377;SDS011;2203;53.686;9.994;2023-02-12T09:17:56;40.20;;;15.50;;
4377;SDS011;2203;53.686;9.994;2023-02-12T09:20:21;33.53;;;14.53;;
4377;SDS011;2203;53.686;9.994;2023-02-12T09:22:47;38.73;;;15.70;;
4377;SDS011;2203;53.686;9.994;2023-02-12T09:25:12;35.10;;;14.83;;
4377;SDS011;2203;53.686;9.994;2023-02-12T09:27:38;45.80;;;14.40;;
4377;SDS011;2203;53.686;9.994;2023-02-12T09:30:03;40.90;;;14.20;;
4377;SDS011;2203;53.686;9.994;2023-02-12T09:32:29;37.80;;;14.07;;
4377;SDS011;2203;53.686;9.994;2023-02-12T09:34:54;33.70;;;13.13;;
4377;SDS011;2203;53.686;9.994;2023-02-12T09:37:19;37.83;;;13.23;;
4377;SDS011;2203;53.686;9.994;2023-02-12T09:39:45;33.87;;;11.50;;
4377;SDS011;2203;53.686;9.994;2023-02-12T09:44:58;33.47;;;13.17;;
4377;SDS011;2203;53.686;9.994;2023-02-12T09:50:53;36.47;;;11.67;;
4377;SDS011;2203;53.686;9.994;2023-02-12T09:53:20;32.50;;;12.03;;
4377;SDS011;2203;53.686;9.994;2023-02-12T09:55:49;29.63;;;11.73;;
4377;SDS011;2203;53.686;9.994;2023-02-12T09:58:21;30.30;;;12.77;;
4377;SDS011;2203;53.686;9.994;2023-02-12T10:00:53;31.00;;;13.00;;
4377;SDS011;2203;53.686;9.994;2023-02-12T10:03:19;33.67;;;14.40;;
4377;SDS011;2203;53.686;9.994;2023-02-12T10:05:49;27.30;;;12.43;;
4377;SDS011;2203;53.686;9.994;2023-02-12T10:13:48;33.90;;;13.57;;
4377;SDS011;2203;53.686;9.994;2023-02-12T10:21:55;38.90;;;13.73;;
4377;SDS011;2203;53.686;9.994;2023-02-12T10:24:40;37.37;;;15.53;;
4377;SDS011;2203;53.686;9.994;2023-02-12T10:27:12;42.20;;;15.80;;
4377;SDS011;2203;53.686;9.994;2023-02-12T10:29:39;34.77;;;15.57;;
4377;SDS011;2203;53.686;9.994;2023-02-12T10:34:54;37.27;;;15.00;;
4377;SDS011;2203;53.686;9.994;2023-02-12T10:37:24;30.97;;;13.50;;
4377;SDS011;2203;53.686;9.994;2023-02-12T10:39:52;35.23;;;15.57;;
4377;SDS011;2203;53.686;9.994;2023-02-12T10:42:38;42.97;;;15.10;;
4377;SDS011;2203;53.686;9.994;2023-02-12T10:45:05;35.23;;;15.60;;
4377;SDS011;2203;53.686;9.994;2023-02-12T10:47:34;40.80;;;16.30;;
4377;SDS011;2203;53.686;9.994;2023-02-12T10:50:00;37.00;;;13.93;;
4377;SDS011;2203;53.686;9.994;2023-02-12T10:52:47;33.40;;;12.53;;
4377;SDS011;2203;53.686;9.994;2023-02-12T10:55:26;35.40;;;14.57;;
4377;SDS011;2203;53.686;9.994;2023-02-12T10:57:58;30.53;;;11.93;;
4377;SDS011;2203;53.686;9.994;2023-02-12T11:00:32;31.53;;;13.07;;
4377;SDS011;2203;53.686;9.994;2023-02-12T11:03:05;36.43;;;12.50;;
4377;SDS011;2203;53.686;9.994;2023-02-12T11:05:37;41.20;;;13.90;;
4377;SDS011;2203;53.686;9.994;2023-02-12T11:08:04;36.70;;;12.70;;
4377;SDS011;2203;53.686;9.994;2023-02-12T11:13:03;38.47;;;13.90;;
4377;SDS011;2203;53.686;9.994;2023-02-12T11:15:34;36.23;;;13.20;;
4377;SDS011;2203;53.686;9.994;2023-02-12T11:18:02;37.47;;;14.90;;
4377;SDS011;2203;53.686;9.994;2023-02-12T11:20:39;35.07;;;12.70;;
4377;SDS011;2203;53.686;9.994;2023-02-12T11:23:29;27.90;;;11.57;;
4377;SDS011;2203;53.686;9.994;2023-02-12T11:26:00;31.00;;;7.20;;
4377;SDS011;2203;53.686;9.994;2023-02-12T11:28:28;35.80;;;12.67;;
4377;SDS011;2203;53.686;9.994;2023-02-12T11:30:56;28.40;;;12.63;;
4377;SDS011;2203;53.686;9.994;2023-02-12T11:33:32;29.60;;;11.53;;
4377;SDS011;2203;53.686;9.994;2023-02-12T11:36:04;23.37;;;10.20;;
4377;SDS011;2203;53.686;9.994;2023-02-12T11:38:46;26.67;;;10.80;;
4377;SDS011;2203;53.686;9.994;2023-02-12T11:41:33;25.20;;;10.73;;
4377;SDS011;2203;53.686;9.994;2023-02-12T11:46:57;28.63;;;10.90;;
4377;SDS011;2203;53.686;9.994;2023-02-12T11:49:27;26.47;;;10.00;;
4377;SDS011;2203;53.686;9.994;2023-02-12T11:51:54;25.10;;;9.33;;
4377;SDS011;2203;53.686;9.994;2023-02-12T11:54:25;21.53;;;9.97;;
4377;SDS011;2203;53.686;9.994;2023-02-12T11:56:52;27.67;;;11.57;;
4377;SDS011;2203;53.686;9.994;2023-02-12T11:59:30;29.40;;;10.93;;
4377;SDS011;2203;53.686;9.994;2023-02-12T12:02:14;28.43;;;11.00;;
4377;SDS011;2203;53.686;9.994;2023-02-12T12:04:44;21.77;;;8.90;;
4377;SDS011;2203;53.686;9.994;2023-02-12T12:07:13;20.97;;;9.13;;
4377;SDS011;2203;53.686;9.994;2023-02-12T12:12:37;18.13;;;7.87;;
4377;SDS011;2203;53.686;9.994;2023-02-12T12:26:39;22.77;;;5.40;;
4377;SDS011;2203;53.686;9.994;2023-02-12T12:29:10;6.63;;;4.43;;
4377;SDS011;2203;53.686;9.994;2023-02-12T12:31:48;9.10;;;4.83;;
4377;SDS011;2203;53.686;9.994;2023-02-12T12:34:16;12.97;;;4.50;;
4377;SDS011;2203;53.686;9.994;2023-02-12T12:37:04;9.37;;;5.10;;
4377;SDS011;2203;53.686;9.994;2023-02-12T12:42:13;5.90;;;3.90;;
4377;SDS011;2203;53.686;9.994;2023-02-12T13:14:39;6.50;;;4.27;;
4377;SDS011;2203;53.686;9.994;2023-02-12T13:27:59;8.10;;;4.40;;
4377;SDS011;2203;53.686;9.994;2023-02-12T13:30:30;9.90;;;4.77;;
4377;SDS011;2203;53.686;9.994;2023-02-12T13:33:05;8.83;;;4.70;;
4377;SDS011;2203;53.686;9.994;2023-02-12T13:35:34;7.53;;;4.53;;
4377;SDS011;2203;53.686;9.994;2023-02-12T13:38:03;16.80;;;5.17;;
4377;SDS011;2203;53.686;9.994;2023-02-12T13:40:30;10.10;;;6.97;;
4377;SDS011;2203;53.686;9.994;2023-02-12T13:43:00;8.60;;;5.40;;
4377;SDS011;2203;53.686;9.994;2023-02-12T13:45:51;12.50;;;6.73;;
4377;SDS011;2203;53.686;9.994;2023-02-12T13:56:33;13.87;;;7.30;;
4377;SDS011;2203;53.686;9.994;2023-02-12T13:59:32;15.73;;;7.93;;
4377;SDS011;2203;53.686;9.994;2023-02-12T14:01:56;14.27;;;6.83;;
4377;SDS011;2203;53.686;9.994;2023-02-12T14:12:09;13.43;;;7.33;;
4377;SDS011;2203;53.686;9.994;2023-02-12T14:14:39;13.40;;;6.90;;
4377;SDS011;2203;53.686;9.994;2023-02-12T14:27:46;13.93;;;6.50;;
4377;SDS011;2203;53.686;9.994;2023-02-12T14:37:52;7.33;;;4.00;;
4377;SDS011;2203;53.686;9.994;2023-02-12T14:43:44;4.57;;;2.97;;
4377;SDS011;2203;53.686;9.994;2023-02-12T14:45:56;4.20;;;3.13;;
4377;SDS011;2203;53.686;9.994;2023-02-12T14:51:15;9.80;;;3.30;;
4377;SDS011;2203;53.686;9.994;2023-02-12T14:53:44;5.00;;;3.43;;
4377;SDS011;2203;53.686;9.994;2023-02-12T14:56:11;5.13;;;3.70;;
4377;SDS011;2203;53.686;9.994;2023-02-12T14:58:42;5.30;;;3.40;;
4377;SDS011;2203;53.686;9.994;2023-02-12T15:01:08;3.90;;;3.17;;
4377;SDS011;2203;53.686;9.994;2023-02-12T15:06:18;5.03;;;2.97;;
4377;SDS011;2203;53.686;9.994;2023-02-12T15:08:50;3.93;;;2.40;;
4377;SDS011;2203;53.686;9.994;2023-02-12T15:13:51;6.57;;;4.07;;
4377;SDS011;2203;53.686;9.994;2023-02-12T15:16:24;3.10;;;2.47;;
4377;SDS011;2203;53.686;9.994;2023-02-12T15:19:03;3.10;;;2.30;;
4377;SDS011;2203;53.686;9.994;2023-02-12T15:21:36;1.73;;;1.63;;
4377;SDS011;2203;53.686;9.994;2023-02-12T15:26:30;2.60;;;2.07;;
4377;SDS011;2203;53.686;9.994;2023-02-12T15:28:57;5.37;;;2.43;;
4377;SDS011;2203;53.686;9.994;2023-02-12T15:31:27;2.90;;;2.40;;
4377;SDS011;2203;53.686;9.994;2023-02-12T15:33:57;3.27;;;2.67;;
4377;SDS011;2203;53.686;9.994;2023-02-12T15:36:24;2.50;;;2.30;;
4377;SDS011;2203;53.686;9.994;2023-02-12T15:38:59;3.17;;;2.07;;
4377;SDS011;2203;53.686;9.994;2023-02-12T15:41:28;3.57;;;2.50;;
4377;SDS011;2203;53.686;9.994;2023-02-12T15:43:57;3.07;;;2.77;;
4377;SDS011;2203;53.686;9.994;2023-02-12T15:46:26;3.60;;;3.07;;
4377;SDS011;2203;53.686;9.994;2023-02-12T15:48:51;2.93;;;2.60;;
4377;SDS011;2203;53.686;9.994;2023-02-12T15:51:36;4.30;;;2.90;;
4377;SDS011;2203;53.686;9.994;2023-02-12T15:54:05;3.30;;;3.00;;
4377;SDS011;2203;53.686;9.994;2023-02-12T15:56:31;3.30;;;2.70;;
4377;SDS011;2203;53.686;9.994;2023-02-12T15:59:00;8.07;;;2.43;;
4377;SDS011;2203;53.686;9.994;2023-02-12T16:01:27;5.47;;;3.47;;
4377;SDS011;2203;53.686;9.994;2023-02-12T16:03:55;3.30;;;2.67;;
4377;SDS011;2203;53.686;9.994;2023-02-12T16:06:22;4.40;;;3.33;;
4377;SDS011;2203;53.686;9.994;2023-02-12T16:08:57;4.63;;;3.10;;
4377;SDS011;2203;53.686;9.994;2023-02-12T16:11:23;4.93;;;3.80;;
4377;SDS011;2203;53.686;9.994;2023-02-12T16:13:54;6.80;;;4.23;;
4377;SDS011;2203;53.686;9.994;2023-02-12T16:16:29;8.03;;;4.00;;
4377;SDS011;2203;53.686;9.994;2023-02-12T16:21:29;8.17;;;5.17;;
4377;SDS011;2203;53.686;9.994;2023-02-12T16:23:55;9.20;;;5.53;;
4377;SDS011;2203;53.686;9.994;2023-02-12T16:26:24;8.03;;;5.40;;
4377;SDS011;2203;53.686;9.994;2023-02-12T16:28:53;11.13;;;5.90;;
4377;SDS011;2203;53.686;9.994;2023-02-12T16:31:20;10.17;;;6.77;;
4377;SDS011;2203;53.686;9.994;2023-02-12T16:33:53;9.57;;;5.80;;
4377;SDS011;2203;53.686;9.994;2023-02-12T16:38:48;10.50;;;6.60;;
4377;SDS011;2203;53.686;9.994;2023-02-12T16:43:47;9.43;;;6.13;;
4377;SDS011;2203;53.686;9.994;2023-02-12T16:46:15;10.03;;;6.90;;
4377;SDS011;2203;53.686;9.994;2023-02-12T16:48:42;13.90;;;7.70;;
4377;SDS011;2203;53.686;9.994;2023-02-12T16:51:20;12.40;;;6.80;;
4377;SDS011;2203;53.686;9.994;2023-02-12T16:53:53;9.77;;;6.30;;
4377;SDS011;2203;53.686;9.994;2023-02-12T16:56:21;12.83;;;7.63;;
4377;SDS011;2203;53.686;9.994;2023-02-12T16:58:48;12.07;;;7.57;;
4377;SDS011;2203;53.686;9.994;2023-02-12T17:01:16;15.30;;;6.70;;
4377;SDS011;2203;53.686;9.994;2023-02-12T17:03:44;14.87;;;7.70;;
4377;SDS011;2203;53.686;9.994;2023-02-12T17:06:11;15.70;;;7.50;;
4377;SDS011;2203;53.686;9.994;2023-02-12T17:08:37;8.83;;;6.87;;
4377;SDS011;2203;53.686;9.994;2023-02-12T17:11:03;15.47;;;7.90;;
4377;SDS011;2203;53.686;9.994;2023-02-12T17:13:28;13.67;;;7.77;;
4377;SDS011;2203;53.686;9.994;2023-02-12T17:15:55;13.53;;;7.47;;
4377;SDS011;2203;53.686;9.994;2023-02-12T17:18:22;16.03;;;7.93;;
4377;SDS011;2203;53.686;9.994;2023-02-12T17:20:55;15.43;;;7.17;;
4377;SDS011;2203;53.686;9.994;2023-02-12T17:23:23;14.27;;;9.10;;
4377;SDS011;2203;53.686;9.994;2023-02-12T17:25:49;14.80;;;7.80;;
4377;SDS011;2203;53.686;9.994;2023-02-12T17:28:15;13.50;;;7.53;;
4377;SDS011;2203;53.686;9.994;2023-02-12T17:30:40;13.70;;;8.20;;
4377;SDS011;2203;53.686;9.994;2023-02-12T17:33:06;15.20;;;8.90;;
4377;SDS011;2203;53.686;9.994;2023-02-12T17:35:31;16.27;;;8.47;;
4377;SDS011;2203;53.686;9.994;2023-02-12T17:37:57;16.30;;;9.20;;
4377;SDS011;2203;53.686;9.994;2023-02-12T17:40:22;16.50;;;9.10;;
4377;SDS011;2203;53.686;9.994;2023-02-12T17:42:47;19.90;;;9.43;;
4377;SDS011;2203;53.686;9.994;2023-02-12T17:45:13;15.80;;;8.70;;
4377;SDS011;2203;53.686;9.994;2023-02-12T17:47:38;15.10;;;8.50;;
4377;SDS011;2203;53.686;9.994;2023-02-12T17:50:08;25.83;;;9.93;;
4377;SDS011;2203;53.686;9.994;2023-02-12T17:52:34;14.50;;;8.10;;
4377;SDS011;2203;53.686;9.994;2023-02-12T17:55:00;13.60;;;8.60;;
4377;SDS011;2203;53.686;9.994;2023-02-12T17:57:25;18.30;;;8.37;;
4377;SDS011;2203;53.686;9.994;2023-02-12T17:59:50;15.13;;;8.23;;
4377;SDS011;2203;53.686;9.994;2023-02-12T18:02:16;18.97;;;9.50;;
4377;SDS011;2203;53.686;9.994;2023-02-12T18:04:41;22.57;;;11.10;;
4377;SDS011;2203;53.686;9.994;2023-02-12T18:07:07;19.20;;;9.57;;
4377;SDS011;2203;53.686;9.994;2023-02-12T18:09:32;12.87;;;7.90;;
4377;SDS011;2203;53.686;9.994;2023-02-12T18:11:57;14.90;;;8.20;;
4377;SDS011;2203;53.686;9.994;2023-02-12T18:14:23;18.93;;;9.63;;
4377;SDS011;2203;53.686;9.994;2023-02-12T18:16:48;16.33;;;7.53;;